CST,Max TemperatureF,Mean TemperatureF,Min TemperatureF,Max Dew PointF,MeanDew PointF,Min DewpointF,Max Humidity, Mean Humidity, Min Humidity, Max Sea Level PressureIn, Mean Sea Level PressureIn, Min Sea Level PressureIn, Max VisibilityMiles, Mean VisibilityMiles, Min VisibilityMiles, Max Wind SpeedMPH, Mean Wind SpeedMPH, Max Gust SpeedMPH,PrecipitationIn, CloudCover, Events, WindDirDegrees
2012-12-1,80,73,66,67,65,61,94,82,52,30.13,30.08,29.99,10,10,8,13,7,16,0.00,6,,172
2012-12-2,80,73,66,67,65,59,100,84,54,30.16,30.08,30.01,10,10,7,10,7,,0.00,6,,163
2012-12-3,81,72,64,66,63,59,100,83,49,30.07,30.01,29.94,10,9,4,13,7,22,0.00,5,,155
2012-12-4,77,68,59,68,60,43,100,80,39,30.20,30.10,30.01,10,8,1,8,1,,0.00,5,Rain,15
2012-12-5,75,62,46,43,35,23,77,44,14,30.26,30.15,30.05,10,10,10,7,4,,0.00,0,,358
2012-12-6,73,59,45,57,52,40,100,82,38,30.04,29.96,29.83,10,6,0,8,1,,0.00,4,Fog,188
2012-12-7,78,68,57,64,61,57,100,86,56,29.89,29.84,29.75,10,7,0,10,2,,0.00,6,Fog-Rain,151
2012-12-8,77,69,61,67,65,60,100,90,62,29.91,29.84,29.78,8,5,1,8,3,,0.00,6,Rain,154
2012-12-9,79,70,59,68,65,44,100,85,58,29.90,29.83,29.74,10,4,2,14,3,23,0.00,6,Rain,150
2012-12-10,59,48,36,45,24,11,59,39,26,30.15,30.06,29.89,10,10,10,22,12,34,0.00,3,,11
2012-12-11,54,44,33,27,21,17,70,45,24,30.25,30.17,30.11,10,10,10,9,2,,0.00,0,,54
2012-12-12,62,45,28,31,23,17,85,52,18,30.35,30.27,30.21,10,10,6,8,1,,0.00,0,,124
2012-12-13,64,49,34,49,38,28,82,64,48,30.30,30.24,30.18,10,10,10,13,3,18,0.00,4,,125
2012-12-14,72,64,57,66,58,49,87,79,71,30.14,29.99,29.86,10,10,10,17,7,24,0.00,8,Rain,128
2012-12-15,72,66,60,68,58,48,100,76,43,29.96,29.89,29.83,10,8,4,12,5,,0.01,6,Rain,36
2012-12-16,70,61,50,66,57,43,100,82,38,29.87,29.82,29.77,10,6,1,12,4,17,0.03,5,Rain,32
2012-12-17,73,58,42,46,35,25,97,53,16,30.01,29.93,29.87,10,10,5,12,3,,0.00,0,Rain,267
2012-12-18,82,60,37,66,44,35,97,61,21,29.94,29.86,29.77,10,10,10,9,4,,0.00,1,Rain,160
2012-12-19,82,72,63,68,64,55,100,79,49,29.84,29.75,29.63,9,7,2,15,9,23,0.00,5,,165
2012-12-20,69,52,33,28,9,-3,52,22,9,30.51,30.32,29.89,10,9,4,24,15,39,0.00,1,,336
2012-12-21,60,44,28,25,13,1,64,36,10,30.55,30.46,30.38,10,10,10,9,2,,0.00,0,,166
2012-12-22,66,51,36,52,39,19,81,58,38,30.38,30.24,30.10,10,10,10,14,3,22,0.00,4,,154
2012-12-23,68,62,55,58,55,52,97,82,63,30.08,29.98,29.89,10,10,7,9,5,,0.00,1,,205
2012-12-24,69,58,46,52,39,30,100,54,23,29.99,29.85,29.70,10,9,6,13,4,20,0.00,1,,52
2012-12-25,70,54,37,64,38,18,94,54,14,30.15,29.79,29.58,10,10,7,26,9,40,0.00,3,Snow,314
2012-12-26,48,39,30,20,18,16,54,44,27,30.31,30.20,30.12,10,10,9,20,9,31,0.00,0,Snow,23
2012-12-27,46,39,32,45,31,20,93,70,55,30.12,29.98,29.83,10,8,3,8,5,,0.00,6,,50
2012-12-28,71,58,43,48,37,17,100,68,13,30.17,29.92,29.79,10,6,2,16,3,26,0.00,3,Rain,340
2012-12-29,51,43,35,25,20,15,67,42,27,30.48,30.40,30.19,10,10,10,9,4,,0.00,0,,28
2012-12-30,55,44,32,52,33,18,100,64,30,30.48,30.32,30.17,10,8,2,13,4,,0.01,4,,104
2012-12-31,62,56,50,61,56,50,100,99,93,30.16,30.02,29.89,5,2,1,10,4,,0.14,8,Rain,56